createdAt,value
2019-05-13T05:59:32.168Z,24896.00
2019-05-13T06:00:32.388Z,23200.00
2019-05-13T06:01:33.137Z,23520.00
2019-05-13T06:02:32.271Z,24992.00
2019-05-13T06:03:32.750Z,24672.00
2019-05-13T06:04:32.636Z,23232.00
2019-05-13T06:05:31.962Z,24992.00
2019-05-13T06:06:32.892Z,28544.00
2019-05-13T06:07:32.402Z,29952.00
2019-05-13T06:08:32.354Z,28160.00
2019-05-13T06:09:32.323Z,26368.00
2019-05-13T06:10:44.169Z,27712.00
2019-05-13T06:11:32.845Z,29024.00
2019-05-13T06:12:31.813Z,26464.00
2019-05-13T06:13:31.805Z,26016.00
2019-05-13T06:14:32.686Z,27744.00
2019-05-13T06:15:31.785Z,28128.00
2019-05-13T06:16:32.185Z,29280.00
2019-05-13T06:17:32.031Z,31584.00
2019-05-13T06:18:32.641Z,32992.00
2019-05-13T06:19:32.125Z,32352.00
2019-05-13T06:20:31.836Z,29632.00
2019-05-13T06:21:32.206Z,28032.00
2019-05-13T06:22:32.113Z,29408.00
2019-05-13T06:23:31.692Z,30112.00
2019-05-13T06:24:31.693Z,30464.00
2019-05-13T06:25:33.657Z,31744.00
2019-05-13T06:26:31.664Z,32768.00
2019-05-13T06:27:31.866Z,32352.00
2019-05-13T06:28:32.348Z,32832.00
2019-05-13T06:29:32.048Z,31968.00
2019-05-13T06:30:32.541Z,32000.00
2019-05-13T06:31:32.244Z,32512.00
2019-05-13T06:32:31.626Z,33152.00
2019-05-13T06:33:31.768Z,36448.00
2019-05-13T06:34:32.651Z,38848.00
2019-05-13T06:35:32.277Z,36256.00
2019-05-13T06:36:31.856Z,33792.00
2019-05-13T06:37:32.170Z,34400.00
2019-05-13T06:38:31.784Z,35744.00
2019-05-13T06:39:31.936Z,36320.00
2019-05-13T06:40:31.925Z,37696.00
2019-05-13T06:41:32.409Z,37536.00
2019-05-13T06:42:32.489Z,34464.00
2019-05-13T06:43:31.633Z,32224.00
2019-05-13T06:44:31.841Z,33376.00
2019-05-13T06:45:31.755Z,34944.00
2019-05-13T06:46:32.316Z,36576.00
2019-05-13T06:47:32.207Z,36672.00
2019-05-13T06:48:32.366Z,37440.00
2019-05-13T06:49:32.258Z,37888.00
2019-05-13T06:50:32.354Z,39584.00
2019-05-13T06:51:31.538Z,41728.00
2019-05-13T06:52:32.072Z,38208.00
2019-05-13T06:53:32.179Z,34752.00
2019-05-13T06:54:33.089Z,33216.00
2019-05-13T06:55:31.631Z,34656.00
2019-05-13T06:56:32.246Z,36736.00
2019-05-13T06:57:32.277Z,39040.00
2019-05-13T06:58:32.503Z,41088.00
2019-05-13T06:59:31.812Z,38528.00
2019-05-13T07:00:34.673Z,38560.00
2019-05-13T07:01:32.305Z,40672.00
2019-05-13T07:02:32.112Z,42368.00
2019-05-13T07:03:32.289Z,38656.00
2019-05-13T07:04:32.599Z,35680.00
2019-05-13T07:05:31.879Z,37792.00
2019-05-13T07:06:32.306Z,41600.00
2019-05-13T07:07:31.853Z,43744.00
2019-05-13T07:08:31.546Z,43904.00
2019-05-13T07:09:32.354Z,43712.00
2019-05-13T07:10:32.082Z,42688.00
2019-05-13T07:11:31.554Z,41344.00
2019-05-13T07:12:31.494Z,39168.00
2019-05-13T07:13:32.289Z,38720.00
2019-05-13T07:14:32.384Z,42272.00
2019-05-13T07:15:31.559Z,43264.00
2019-05-13T07:16:31.734Z,45184.00
2019-05-13T07:17:32.347Z,44640.00
2019-05-13T07:18:32.329Z,43904.00
2019-05-13T07:19:32.206Z,43712.00
2019-05-13T07:20:32.252Z,45536.00
2019-05-13T07:21:32.278Z,45984.00
2019-05-13T07:22:32.275Z,44960.00
2019-05-13T07:23:31.847Z,41920.00
2019-05-13T07:24:32.284Z,42784.00
2019-05-13T07:25:32.698Z,42976.00
2019-05-13T07:26:31.612Z,41760.00
2019-05-13T07:27:31.837Z,38720.00
2019-05-13T07:28:32.253Z,37856.00
2019-05-13T07:29:32.557Z,41952.00
2019-05-13T07:30:31.654Z,44000.00
2019-05-13T07:31:32.421Z,44544.00
2019-05-13T07:32:31.604Z,46368.00
2019-05-13T07:33:32.074Z,45248.00
2019-05-13T07:34:33.374Z,46784.00
2019-05-13T07:35:37.555Z,48192.00
2019-05-13T07:36:31.917Z,48160.00
2019-05-13T07:37:31.830Z,47616.00
2019-05-13T07:38:32.409Z,49152.00
2019-05-13T07:39:32.713Z,47104.00
2019-05-13T07:40:32.164Z,45600.00
2019-05-13T07:41:38.695Z,45280.00
2019-05-13T07:42:55.300Z,45600.00
2019-05-13T07:43:55.283Z,47136.00
2019-05-13T07:44:55.275Z,47584.00
2019-05-13T07:45:55.298Z,46144.00
2019-05-13T07:46:55.256Z,48512.00
2019-05-13T07:47:55.240Z,47264.00
2019-05-13T07:48:55.225Z,45664.00
2019-05-13T07:49:55.220Z,44416.00
2019-05-13T07:51:00.313Z,46656.00
2019-05-13T07:52:22.530Z,51456.00
2019-05-13T07:53:22.021Z,51872.00
2019-05-13T07:54:22.018Z,51040.00
2019-05-13T07:55:22.141Z,52032.00
2019-05-13T07:56:21.806Z,53792.00
2019-05-13T07:57:21.438Z,51968.00
2019-05-13T07:58:22.678Z,50304.00
2019-05-13T07:59:21.136Z,50304.00
2019-05-13T08:00:21.642Z,6064.00
2019-05-13T08:01:21.892Z,51616.00
2019-05-13T08:02:21.699Z,51264.00
2019-05-13T08:03:21.394Z,52032.00
2019-05-13T08:04:23.713Z,53248.00
2019-05-13T08:05:44.009Z,54336.00
2019-05-13T08:06:44.072Z,52448.00
2019-05-13T08:07:43.983Z,50496.00
2019-05-13T08:08:44.079Z,52736.00
2019-05-13T08:09:43.970Z,7208.00
2019-05-13T08:10:43.962Z,56128.00
2019-05-13T08:12:00.116Z,55296.00
2019-05-13T08:13:08.405Z,53984.00
2019-05-13T08:14:08.395Z,57536.00
2019-05-13T08:15:08.384Z,60768.00
2019-05-13T08:16:08.371Z,62112.00
2019-05-13T08:17:08.362Z,64384.00
2019-05-13T08:18:08.352Z,64512.00
2019-05-13T08:19:08.339Z,60960.00
2019-05-13T08:20:08.332Z,57504.00
2019-05-13T08:21:08.318Z,56224.00
2019-05-13T08:22:08.307Z,56480.00
2019-05-13T08:23:08.295Z,56000.00
2019-05-13T08:24:08.288Z,58368.00
2019-05-13T08:25:08.285Z,61696.00
2019-05-13T08:26:08.280Z,65824.00
2019-05-13T08:27:08.256Z,42624.00
2019-05-13T08:28:08.243Z,61472.00
2019-05-13T08:29:08.233Z,60224.00
2019-05-13T08:30:08.225Z,61664.00
2019-05-13T08:31:08.219Z,58880.00
2019-05-13T08:32:08.203Z,56768.00
2019-05-13T08:33:08.189Z,55264.00
2019-05-13T08:34:08.185Z,57536.00
2019-05-13T08:35:09.321Z,61632.00
2019-05-13T08:36:08.164Z,61184.00
2019-05-13T08:37:08.148Z,58464.00
2019-05-13T08:38:08.136Z,55040.00
2019-05-13T08:39:08.163Z,51008.00
2019-05-13T08:40:08.143Z,51328.00
2019-05-13T08:41:09.909Z,53952.00
2019-05-13T08:42:32.621Z,54880.00
2019-05-13T08:43:32.606Z,56480.00
2019-05-13T08:44:32.866Z,58656.00
2019-05-13T08:45:33.788Z,58848.00
2019-05-13T08:46:32.574Z,39648.00
2019-05-13T08:47:32.569Z,64288.00
2019-05-13T08:48:32.602Z,66368.00
2019-05-13T08:49:32.850Z,67328.00
2019-05-13T08:50:32.532Z,70368.00
2019-05-13T08:51:34.699Z,68064.00
2019-05-13T08:52:32.510Z,61088.00
2019-05-13T08:53:32.500Z,58944.00
2019-05-13T08:54:33.140Z,57440.00
2019-05-13T08:55:32.477Z,54272.00
2019-05-13T08:56:32.728Z,56160.00
2019-05-13T08:57:32.471Z,51552.00
2019-05-13T08:58:32.444Z,57024.00
2019-05-13T08:59:32.434Z,55584.00
2019-05-13T09:00:32.427Z,58944.00
2019-05-13T09:01:32.416Z,64960.00
2019-05-13T09:02:32.403Z,66432.00
2019-05-13T09:03:32.790Z,65600.00
2019-05-13T09:04:32.384Z,65920.00
2019-05-13T09:05:32.390Z,64992.00
2019-05-13T09:06:32.360Z,64032.00
2019-05-13T09:07:32.352Z,64544.00
2019-05-13T09:08:32.339Z,70496.00
2019-05-13T09:09:32.328Z,12000.00
2019-05-13T09:10:32.319Z,35712.00
2019-05-13T09:11:32.308Z,7728.00
2019-05-13T09:12:35.829Z,6592.00
2019-05-13T09:13:33.018Z,6808.00
2019-05-13T09:14:32.704Z,7208.00
2019-05-13T09:15:32.263Z,7808.00
2019-05-13T09:16:32.253Z,7892.00
2019-05-13T09:17:32.238Z,66784.00
2019-05-13T09:18:32.482Z,62944.00
2019-05-13T09:19:32.642Z,62528.00
2019-05-13T09:20:32.389Z,64000.00
2019-05-13T09:21:32.240Z,65280.00
2019-05-13T09:22:32.186Z,64960.00
2019-05-13T09:23:32.174Z,68032.00
2019-05-13T09:24:37.169Z,56320.00
2019-05-13T09:25:32.160Z,26592.00
2019-05-13T09:26:32.140Z,15108.00
2019-05-13T09:27:32.130Z,9976.00
2019-05-13T09:28:32.590Z,8784.00
2019-05-13T09:29:32.544Z,7608.00
2019-05-13T09:30:32.103Z,6908.00
2019-05-13T09:31:32.541Z,7012.00
2019-05-13T09:32:32.077Z,7480.00
2019-05-13T09:33:32.804Z,22144.00
2019-05-13T09:34:32.935Z,9612.00
2019-05-13T09:35:32.047Z,9656.00
2019-05-13T09:36:32.500Z,16468.00
2019-05-13T09:37:32.020Z,66656.00
2019-05-13T09:38:32.674Z,13700.00
2019-05-13T09:39:32.474Z,9672.00
2019-05-13T09:40:31.994Z,8208.00
2019-05-13T09:41:36.972Z,7504.00
2019-05-13T09:42:48.248Z,7204.00
2019-05-13T09:43:33.954Z,7464.00
2019-05-13T09:44:32.901Z,7804.00
2019-05-13T09:45:32.239Z,8236.00
2019-05-13T09:46:32.029Z,8884.00
2019-05-13T09:47:32.277Z,9308.00
2019-05-13T09:48:32.193Z,9368.00
2019-05-13T09:49:32.998Z,9640.00
2019-05-13T09:50:35.920Z,9468.00
2019-05-13T09:51:32.506Z,9580.00
2019-05-13T09:52:32.094Z,9000.00
2019-05-13T09:53:32.645Z,8308.00
2019-05-13T09:54:33.122Z,7872.00
2019-05-13T09:55:32.642Z,7792.00
2019-05-13T09:56:32.102Z,7864.00
2019-05-13T09:57:32.260Z,7236.00
2019-05-13T09:58:33.010Z,6580.00
2019-05-13T09:59:32.198Z,6160.00
2019-05-13T10:00:32.365Z,5752.00
2019-05-13T10:01:32.178Z,5320.00
2019-05-13T10:02:32.218Z,4736.00
2019-05-13T10:03:33.109Z,4180.00
2019-05-13T10:04:32.103Z,3896.00
2019-05-13T10:05:31.815Z,3976.00
2019-05-13T10:06:32.721Z,4436.00
2019-05-13T10:07:32.013Z,5164.00
2019-05-13T10:08:32.829Z,5880.00
2019-05-13T10:09:32.758Z,6592.00
2019-05-13T10:10:32.008Z,7584.00
2019-05-13T10:11:31.646Z,8340.00
2019-05-13T10:12:32.168Z,10916.00
2019-05-13T10:13:32.095Z,47872.00
2019-05-13T10:14:32.659Z,14032.00
2019-05-13T10:15:32.558Z,50912.00
2019-05-13T10:16:31.699Z,55424.00
2019-05-13T10:17:31.894Z,56864.00
2019-05-13T10:18:32.585Z,58048.00
2019-05-13T10:19:32.367Z,58752.00
2019-05-13T10:20:31.821Z,58208.00
2019-05-13T10:21:32.695Z,57696.00
2019-05-13T10:22:32.028Z,58912.00
2019-05-13T10:23:33.055Z,58816.00
2019-05-13T10:24:32.794Z,58784.00
2019-05-13T10:25:31.490Z,61536.00
2019-05-13T10:26:32.234Z,62848.00
2019-05-13T10:27:32.527Z,61664.00
2019-05-13T10:28:32.068Z,61344.00
2019-05-13T10:29:32.051Z,60544.00
2019-05-13T10:30:32.223Z,62016.00
2019-05-13T10:31:31.705Z,60640.00
2019-05-13T10:32:32.504Z,56928.00
2019-05-13T10:33:32.223Z,10040.00
2019-05-13T10:34:32.125Z,9032.00
2019-05-13T10:35:31.652Z,8536.00
2019-05-13T10:36:31.403Z,8316.00
2019-05-13T10:37:31.361Z,9784.00
2019-05-13T10:38:32.360Z,61152.00
2019-05-13T10:39:31.336Z,59648.00
2019-05-13T10:40:32.703Z,59488.00
2019-05-13T10:41:33.307Z,54272.00
2019-05-13T10:42:31.340Z,54464.00
2019-05-13T10:43:31.817Z,54080.00
2019-05-13T10:44:31.306Z,56032.00
2019-05-13T10:45:33.234Z,8136.00
2019-05-13T10:46:32.091Z,16304.00
2019-05-13T10:47:31.250Z,56992.00
2019-05-13T10:48:31.262Z,56864.00
2019-05-13T10:49:33.071Z,9756.00
2019-05-13T10:50:31.744Z,8740.00
2019-05-13T10:51:32.647Z,7300.00
2019-05-13T10:52:32.275Z,6040.00
2019-05-13T10:53:32.023Z,5344.00
2019-05-13T10:54:32.471Z,4928.00
2019-05-13T10:55:32.419Z,4736.00
2019-05-13T10:56:32.826Z,4936.00
2019-05-13T10:57:31.815Z,5192.00
2019-05-13T10:58:31.140Z,5736.00
2019-05-13T10:59:31.132Z,6484.00
2019-05-13T11:00:32.038Z,7456.00
2019-05-13T11:01:32.742Z,9280.00
2019-05-13T11:02:32.709Z,59744.00
2019-05-13T11:03:32.943Z,59040.00
2019-05-13T11:04:32.678Z,59200.00
2019-05-13T11:05:32.741Z,56992.00
2019-05-13T11:06:32.486Z,57120.00
2019-05-13T11:07:32.034Z,57440.00
2019-05-13T11:08:33.055Z,38784.00
2019-05-13T11:09:32.489Z,6944.00
2019-05-13T11:10:32.618Z,7128.00
2019-05-13T11:11:33.033Z,8456.00
2019-05-13T11:12:33.313Z,65216.00
2019-05-13T11:13:49.507Z,10500.00
2019-05-13T11:14:55.553Z,8120.00
2019-05-13T11:15:58.205Z,8444.00
2019-05-13T11:16:55.415Z,10352.00
2019-05-13T11:17:55.403Z,54592.00
2019-05-13T11:18:55.393Z,40544.00
2019-05-13T11:19:55.383Z,26496.00
2019-05-13T11:20:55.372Z,18504.00
2019-05-13T11:21:55.361Z,13524.00
2019-05-13T11:22:55.353Z,12732.00
2019-05-13T11:23:55.346Z,12264.00
2019-05-13T11:24:55.330Z,11896.00
2019-05-13T11:25:55.317Z,12452.00
2019-05-13T11:26:55.340Z,23008.00
2019-05-13T11:27:58.382Z,18540.00
2019-05-13T11:28:55.289Z,19488.00
2019-05-13T11:29:55.274Z,50176.00
2019-05-13T11:30:59.593Z,18168.00
2019-05-13T11:31:55.251Z,16812.00
2019-05-13T11:32:55.243Z,61152.00
2019-05-13T11:33:55.229Z,61312.00
2019-05-13T11:34:55.223Z,57600.00
2019-05-13T11:35:55.207Z,56256.00
2019-05-13T11:36:55.200Z,56768.00
2019-05-13T11:37:55.186Z,55936.00
2019-05-13T11:38:55.177Z,56288.00
2019-05-13T11:39:55.166Z,56736.00
2019-05-13T11:40:55.161Z,55552.00
2019-05-13T11:41:55.149Z,56864.00
2019-05-13T11:42:55.140Z,51680.00
2019-05-13T11:44:12.112Z,49984.00
2019-05-13T11:45:21.558Z,48192.00
2019-05-13T11:46:21.945Z,46528.00
2019-05-13T11:47:19.574Z,45728.00
2019-05-13T11:48:19.560Z,48032.00
2019-05-13T11:49:19.546Z,49472.00
2019-05-13T11:50:21.566Z,48576.00
2019-05-13T11:51:19.547Z,47392.00
2019-05-13T11:52:22.152Z,44896.00
2019-05-13T11:53:32.560Z,44032.00
2019-05-13T11:54:22.368Z,45664.00
2019-05-13T11:55:22.463Z,46656.00
2019-05-13T11:56:22.721Z,46944.00
2019-05-13T11:57:19.469Z,47104.00
2019-05-13T11:59:21.974Z,41728.00
2019-05-13T12:00:19.431Z,40544.00
2019-05-13T12:01:22.615Z,37760.00
2019-05-13T12:02:22.932Z,37216.00
2019-05-13T12:03:22.689Z,38272.00
2019-05-13T12:04:23.275Z,40704.00
2019-05-13T12:05:22.154Z,42944.00
2019-05-13T12:06:22.922Z,45088.00
2019-05-13T12:07:22.944Z,46368.00
2019-05-13T12:08:22.814Z,44160.00
2019-05-13T12:09:22.015Z,7168.00
2019-05-13T12:10:19.327Z,6380.00
2019-05-13T12:11:21.707Z,10460.00
2019-05-13T12:12:19.304Z,7848.00
2019-05-13T12:13:19.294Z,42240.00
2019-05-13T12:15:28.796Z,40928.00
2019-05-13T12:16:43.736Z,39776.00
2019-05-13T12:17:43.728Z,13468.00
2019-05-13T12:18:44.049Z,7096.00
2019-05-13T12:19:43.706Z,7348.00
2019-05-13T12:20:43.693Z,35776.00
2019-05-13T12:21:46.808Z,34016.00
2019-05-13T12:22:43.677Z,33536.00
2019-05-13T12:23:43.663Z,32928.00
2019-05-13T12:24:43.649Z,32768.00
2019-05-13T12:25:43.985Z,33824.00
2019-05-13T12:26:43.792Z,27264.00
2019-05-13T12:27:43.621Z,10136.00
2019-05-13T12:28:43.610Z,14760.00
2019-05-13T12:29:43.596Z,8248.00
2019-05-13T12:30:43.586Z,7080.00
2019-05-13T12:31:43.591Z,7228.00
2019-05-13T12:32:43.934Z,5496.00
2019-05-13T12:33:44.204Z,4764.00
2019-05-13T12:34:45.923Z,4304.00
2019-05-13T12:35:43.533Z,4072.00
2019-05-13T12:36:43.676Z,4236.00
2019-05-13T12:37:43.514Z,4796.00
2019-05-13T12:38:44.270Z,5208.00
2019-05-13T12:39:44.110Z,5868.00
2019-05-13T12:40:43.479Z,6596.00
2019-05-13T12:41:43.467Z,10712.00
2019-05-13T12:42:47.110Z,17056.00
2019-05-13T12:43:43.444Z,18224.00
2019-05-13T12:45:00.599Z,18516.00
2019-05-13T12:46:07.906Z,17028.00
2019-05-13T12:47:07.889Z,15664.00
2019-05-13T12:48:07.881Z,10548.00
2019-05-13T12:49:07.868Z,6768.00
2019-05-13T12:50:07.856Z,5784.00
2019-05-13T12:51:07.849Z,5484.00
2019-05-13T12:52:07.835Z,5248.00
2019-05-13T12:53:07.859Z,5112.00
2019-05-13T12:54:07.816Z,5100.00
2019-05-13T12:55:07.803Z,5176.00
2019-05-13T12:56:07.799Z,5296.00
2019-05-13T12:57:11.990Z,5456.00
2019-05-13T12:58:33.995Z,6040.00
2019-05-13T12:59:32.274Z,6992.00
2019-05-13T13:00:32.904Z,7348.00
2019-05-13T13:01:32.531Z,7996.00
2019-05-13T13:02:32.733Z,7848.00
2019-05-13T13:03:32.460Z,8144.00
2019-05-13T13:04:33.474Z,8200.00
2019-05-13T13:06:40.312Z,8744.00
2019-05-13T13:07:40.813Z,9056.00
2019-05-13T13:08:56.628Z,8976.00
2019-05-13T13:09:56.618Z,8920.00
2019-05-13T13:10:56.611Z,8560.00
2019-05-13T13:11:56.605Z,8228.00
2019-05-13T13:12:56.589Z,7848.00
2019-05-13T13:14:00.103Z,7600.00
2019-05-13T13:14:57.580Z,6912.00
2019-05-13T13:15:56.591Z,6468.00
2019-05-13T13:16:56.540Z,6236.00
2019-05-13T13:17:56.528Z,6348.00
2019-05-13T13:18:56.519Z,6500.00
2019-05-13T13:20:04.708Z,6396.00
2019-05-13T13:21:24.317Z,6496.00
2019-05-13T13:22:45.449Z,6064.00
2019-05-13T13:23:45.437Z,6284.00
2019-05-13T13:24:51.668Z,6572.00
2019-05-13T13:26:15.632Z,6864.00
2019-05-13T13:27:59.949Z,6520.00
2019-05-13T13:28:58.818Z,6508.00
2019-05-13T13:30:03.242Z,6996.00
2019-05-13T13:31:25.302Z,7776.00
2019-05-13T13:32:24.652Z,8216.00
2019-05-13T13:33:23.251Z,8704.00
2019-05-13T13:34:26.050Z,8740.00
2019-05-13T13:35:23.232Z,8468.00
2019-05-13T13:36:24.140Z,7632.00
2019-05-13T13:37:23.204Z,6688.00
2019-05-13T13:38:25.304Z,5904.00
2019-05-13T13:39:25.491Z,5096.00
2019-05-13T13:40:28.404Z,4320.00
2019-05-13T13:41:25.161Z,3696.00
2019-05-13T13:42:23.149Z,3220.00
2019-05-13T13:43:24.599Z,2932.00
2019-05-13T13:45:25.117Z,2524.00
2019-05-13T13:46:36.311Z,2344.00
2019-05-13T13:47:24.416Z,2216.00
2019-05-13T13:48:25.584Z,2156.00
2019-05-13T13:49:23.465Z,2192.00
2019-05-13T13:50:24.488Z,2272.00
2019-05-13T13:51:26.352Z,2396.00
2019-05-13T13:52:23.043Z,2528.00
2019-05-13T13:53:25.993Z,2696.00
2019-05-13T13:54:23.014Z,2972.00
2019-05-13T13:55:25.873Z,3424.00
2019-05-13T13:56:25.299Z,4068.00
2019-05-13T13:57:25.563Z,4744.00
2019-05-13T13:58:25.367Z,5044.00
2019-05-13T13:59:24.757Z,5000.00
2019-05-13T14:00:39.326Z,4816.00
2019-05-13T14:01:47.411Z,4340.00
2019-05-13T14:02:47.414Z,4088.00
2019-05-13T14:03:47.389Z,3976.00
2019-05-13T14:04:47.382Z,3940.00
2019-05-13T14:05:47.365Z,4008.00
2019-05-13T14:06:39.633Z,8372.00
2019-05-13T14:07:03.724Z,7020.00
2019-05-13T14:07:09.314Z,2712.00
2019-05-13T14:08:12.536Z,4716.00
2019-05-13T14:09:12.131Z,4920.00
2019-05-13T14:10:11.832Z,5116.00
2019-05-13T14:11:11.974Z,5516.00
2019-05-13T14:12:11.780Z,6024.00
2019-05-13T14:13:12.553Z,6356.00
2019-05-13T14:14:12.388Z,6352.00
2019-05-13T14:15:11.751Z,6200.00
2019-05-13T14:16:42.212Z,6052.00
2019-05-13T14:17:36.195Z,5860.00
2019-05-13T14:18:36.187Z,5696.00
2019-05-13T14:19:36.175Z,5480.00
2019-05-13T14:20:36.176Z,5312.00
2019-05-13T14:21:36.155Z,5372.00
2019-05-13T14:22:36.141Z,5492.00
2019-05-13T14:23:37.967Z,5492.00
2019-05-13T14:24:36.135Z,5340.00
2019-05-13T14:25:36.108Z,5112.00
2019-05-13T14:26:36.097Z,4940.00
2019-05-13T14:27:36.170Z,4856.00
2019-05-13T14:28:36.074Z,4788.00
2019-05-13T14:29:41.316Z,4660.00
2019-05-13T14:30:37.121Z,4440.00
2019-05-13T14:31:36.041Z,4224.00
2019-05-13T14:32:36.033Z,3972.00
2019-05-13T14:33:36.030Z,3788.00
2019-05-13T14:34:36.015Z,3800.00
2019-05-13T14:35:36.002Z,3900.00
2019-05-13T14:36:35.988Z,3944.00
2019-05-13T14:37:35.974Z,3936.00
2019-05-13T14:38:35.965Z,4180.00
2019-05-13T14:39:36.305Z,4592.00
2019-05-13T14:40:35.955Z,4872.00
2019-05-13T14:41:35.936Z,5084.00
2019-05-13T14:42:35.924Z,5016.00
2019-05-13T14:43:35.914Z,4876.00
2019-05-13T14:44:35.911Z,4656.00
2019-05-13T14:45:35.888Z,4460.00
2019-05-13T14:46:47.304Z,4368.00
2019-05-13T14:48:01.682Z,4180.00
2019-05-13T14:49:01.667Z,4208.00
2019-05-13T14:50:01.929Z,4328.00
2019-05-13T14:51:01.889Z,4536.00
2019-05-13T14:52:01.252Z,4772.00
2019-05-13T14:53:01.546Z,5028.00
2019-05-13T14:54:02.578Z,5132.00
2019-05-13T14:55:02.175Z,5096.00
2019-05-13T14:56:02.900Z,4864.00
2019-05-13T14:57:02.398Z,4536.00
2019-05-13T14:58:01.617Z,4224.00
2019-05-13T14:59:01.975Z,3952.00
2019-05-13T15:00:17.732Z,3664.00
2019-05-13T15:01:24.671Z,3160.00
2019-05-13T15:02:24.663Z,2916.00
2019-05-13T15:03:24.655Z,2728.00
2019-05-13T15:04:24.643Z,2604.00
2019-05-13T15:05:24.636Z,2576.00
2019-05-13T15:06:24.663Z,2556.00
2019-05-13T15:07:24.607Z,2540.00
2019-05-13T15:08:25.888Z,2532.00
2019-05-13T15:09:24.588Z,2472.00
2019-05-13T15:10:24.572Z,2380.00
2019-05-13T15:11:24.561Z,2280.00
2019-05-13T15:12:24.553Z,2240.00
2019-05-13T15:13:24.545Z,2280.00
2019-05-13T15:14:24.532Z,2380.00
2019-05-13T15:15:24.520Z,2488.00
2019-05-13T15:16:24.508Z,2576.00
2019-05-13T15:17:24.499Z,2616.00
2019-05-13T15:18:24.531Z,2596.00
2019-05-13T15:19:24.475Z,2564.00
2019-05-13T15:20:24.477Z,2536.00
2019-05-13T15:21:24.487Z,2480.00
2019-05-13T15:22:24.496Z,2456.00
2019-05-13T15:23:24.439Z,2448.00
2019-05-13T15:24:24.431Z,2440.00
2019-05-13T15:25:24.434Z,2456.00
2019-05-13T15:26:24.439Z,2628.00
2019-05-13T15:27:24.437Z,2844.00
2019-05-13T15:28:24.375Z,3120.00
2019-05-13T15:29:24.370Z,3264.00
2019-05-13T15:30:24.355Z,3276.00
2019-05-13T15:31:24.344Z,3308.00
2019-05-13T15:32:24.366Z,3400.00
2019-05-13T15:33:24.343Z,3504.00
2019-05-13T15:34:24.309Z,3648.00
2019-05-13T15:35:24.300Z,3816.00
2019-05-13T15:36:24.289Z,3928.00
2019-05-13T15:37:24.362Z,3988.00
2019-05-13T15:38:24.268Z,3992.00
2019-05-13T15:39:24.253Z,3944.00
2019-05-13T15:40:24.242Z,3856.00
2019-05-13T15:41:24.236Z,3724.00
2019-05-13T15:42:24.224Z,3544.00
2019-05-13T15:43:24.212Z,3356.00
2019-05-13T15:44:24.293Z,3180.00
2019-05-13T15:45:24.192Z,3012.00
2019-05-13T15:46:24.178Z,2948.00
2019-05-13T15:47:26.913Z,2924.00
2019-05-13T15:48:24.158Z,2828.00
2019-05-13T15:49:24.145Z,2700.00
2019-05-13T15:50:24.136Z,2604.00
2019-05-13T15:51:24.124Z,2620.00
2019-05-13T15:52:24.116Z,2692.00
2019-05-13T15:53:24.098Z,2852.00
2019-05-13T15:54:24.089Z,3152.00
2019-05-13T15:55:24.082Z,3544.00
2019-05-13T15:56:24.073Z,4020.00
2019-05-13T15:57:24.056Z,4216.00
2019-05-13T15:58:38.368Z,4208.00
2019-05-13T15:59:25.050Z,3820.00
2019-05-13T16:00:24.054Z,3220.00
2019-05-13T16:01:24.011Z,2648.00
2019-05-13T16:02:24.003Z,2340.00
2019-05-13T16:03:23.987Z,2332.00
2019-05-13T16:04:24.116Z,2488.00
2019-05-13T16:05:23.967Z,2644.00
2019-05-13T16:06:23.954Z,2648.00
2019-05-13T16:07:23.951Z,2532.00
2019-05-13T16:08:23.933Z,2352.00
2019-05-13T16:09:23.922Z,2148.00
2019-05-13T16:10:23.910Z,1936.00
2019-05-13T16:11:23.900Z,1720.00
2019-05-13T16:12:23.888Z,1524.00
2019-05-13T16:13:23.877Z,1360.00
2019-05-13T16:14:23.865Z,1216.00
2019-05-13T16:15:23.856Z,1112.00
2019-05-13T16:16:23.851Z,1040.00
2019-05-13T16:17:37.792Z,940.00
2019-05-13T16:18:48.305Z,824.00
2019-05-13T16:19:48.290Z,768.00
2019-05-13T16:20:48.277Z,728.00
2019-05-13T16:21:48.271Z,692.00
2019-05-13T16:22:48.256Z,664.00
2019-05-13T16:23:48.245Z,640.00
2019-05-13T16:24:48.232Z,648.00
2019-05-13T16:25:48.225Z,692.00
2019-05-13T16:26:48.217Z,780.00
2019-05-13T16:27:48.199Z,848.00
2019-05-13T16:28:48.186Z,920.00
2019-05-13T16:29:48.183Z,1012.00
2019-05-13T16:30:48.195Z,1124.00
2019-05-13T16:31:48.156Z,1272.00
2019-05-13T16:32:48.446Z,1428.00
2019-05-13T16:33:48.129Z,1592.00
2019-05-13T16:34:48.117Z,1748.00
2019-05-13T16:35:48.107Z,1900.00
2019-05-13T16:36:48.093Z,2032.00
2019-05-13T16:37:48.083Z,2184.00
2019-05-13T16:38:48.070Z,2228.00
2019-05-13T16:39:48.060Z,2200.00
2019-05-13T16:40:48.049Z,2156.00
2019-05-13T16:41:48.038Z,2152.00
2019-05-13T16:42:48.030Z,2172.00
2019-05-13T16:43:48.012Z,2024.00
2019-05-13T16:44:48.002Z,1800.00
2019-05-13T16:45:47.989Z,1588.00
2019-05-13T16:46:47.978Z,1436.00
2019-05-13T16:47:57.243Z,1316.00
2019-05-13T16:49:12.433Z,1224.00
2019-05-13T16:50:12.424Z,1228.00
2019-05-13T16:51:12.861Z,1292.00
2019-05-13T16:52:12.399Z,1368.00
2019-05-13T16:53:12.392Z,1440.00
2019-05-13T16:54:12.390Z,1480.00
2019-05-13T16:56:25.694Z,1356.00
2019-05-13T16:57:36.822Z,1260.00
2019-05-13T16:58:36.813Z,1200.00
2019-05-13T16:59:36.804Z,1152.00
2019-05-13T17:00:36.793Z,1148.00
2019-05-13T17:01:36.779Z,1120.00
2019-05-13T17:02:36.774Z,1096.00
2019-05-13T17:03:36.758Z,1144.00
2019-05-13T17:04:36.745Z,1208.00
2019-05-13T17:05:36.742Z,1220.00
2019-05-13T17:06:36.727Z,1224.00
2019-05-13T17:07:36.715Z,1280.00
2019-05-13T17:08:36.705Z,1320.00
2019-05-13T17:09:36.699Z,1284.00
2019-05-13T17:10:36.680Z,1212.00
2019-05-13T17:11:36.676Z,1148.00
2019-05-13T17:12:36.663Z,1092.00
2019-05-13T17:13:36.644Z,1088.00
2019-05-13T17:14:36.650Z,1112.00
2019-05-13T17:15:36.621Z,1136.00
2019-05-13T17:16:36.613Z,1164.00
2019-05-13T17:17:36.602Z,1204.00
2019-05-13T17:18:36.586Z,1208.00
2019-05-13T17:19:36.575Z,1192.00
2019-05-13T17:20:36.565Z,1180.00
2019-05-13T17:21:36.559Z,1176.00
2019-05-13T17:22:36.548Z,1172.00
2019-05-13T17:23:36.531Z,1160.00
2019-05-13T17:24:36.519Z,1136.00
2019-05-13T17:25:36.507Z,1108.00
2019-05-13T17:26:36.498Z,1108.00
2019-05-13T17:27:36.485Z,1140.00
2019-05-13T17:28:36.477Z,1228.00
2019-05-13T17:29:36.463Z,1356.00
2019-05-13T17:30:36.454Z,1448.00
2019-05-13T17:31:36.440Z,1504.00
2019-05-13T17:32:36.429Z,1520.00
2019-05-13T17:33:36.421Z,1484.00
2019-05-13T17:34:36.413Z,1436.00
2019-05-13T17:35:36.399Z,1388.00
2019-05-13T17:36:36.390Z,1344.00
2019-05-13T17:37:36.377Z,1340.00
2019-05-13T17:38:36.368Z,1384.00
2019-05-13T17:39:36.361Z,1416.00
2019-05-13T17:40:36.340Z,1456.00
2019-05-13T17:41:36.335Z,1532.00
2019-05-13T17:42:36.321Z,1616.00
2019-05-13T17:43:36.310Z,1660.00
2019-05-13T17:44:36.404Z,1712.00
2019-05-13T17:45:36.291Z,1700.00
2019-05-13T17:46:36.286Z,1628.00
2019-05-13T17:47:36.266Z,1548.00
2019-05-13T17:48:36.254Z,1464.00
2019-05-13T17:49:36.242Z,1372.00
2019-05-13T17:50:36.232Z,1264.00
2019-05-13T17:51:36.219Z,1160.00
2019-05-13T17:52:36.212Z,1072.00
2019-05-13T17:53:36.199Z,1012.00
2019-05-13T17:54:36.187Z,1000.00
2019-05-13T17:55:36.178Z,1088.00
2019-05-13T17:56:36.165Z,1232.00
2019-05-13T17:57:36.153Z,1356.00
2019-05-13T17:58:36.153Z,1416.00
2019-05-13T17:59:36.135Z,1388.00
2019-05-13T18:00:36.124Z,1304.00
2019-05-13T18:01:36.111Z,1248.00
2019-05-13T18:02:36.105Z,1196.00
2019-05-13T18:03:36.094Z,1160.00
2019-05-13T18:04:36.079Z,1108.00
2019-05-13T18:05:36.065Z,1084.00
2019-05-13T18:06:36.054Z,1072.00
2019-05-13T18:07:36.043Z,996.00
2019-05-13T18:08:36.034Z,916.00